Time,TemperatureF,DewpointF,PressureIn,WindDirection,WindDirectionDegrees,WindSpeedMPH,WindSpeedGustMPH,Humidity,HourlyPrecipIn,Conditions,Clouds,dailyrainin,SolarRadiationWatts/m^2,SoftwareType,DateUTC
2013-04-07 00:10:00,55.1,29.0,29.74,SSW,192,1.0,5.0,37,0.00,,,0.00,0,weatherlink.com 1.10,2013-04-07 05:10:00,
2013-04-07 00:25:00,55.2,30.0,29.74,South,186,0.0,4.0,38,0.00,,,0.00,0,weatherlink.com 1.10,2013-04-07 05:25:00,
2013-04-07 00:40:00,55.7,30.0,29.73,South,189,0.0,5.0,37,0.00,,,0.00,0,weatherlink.com 1.10,2013-04-07 05:40:00,
2013-04-07 00:55:00,55.8,30.0,29.74,SSW,194,0.0,5.0,37,0.00,,,0.00,0,weatherlink.com 1.10,2013-04-07 05:55:00,
2013-04-07 03:03:00,59.7,31.0,29.73,SSW,207,12.0,17.0,34,0.00,,,0.00,0,weatherlink.com 1.10,2013-04-07 08:03:00,
2013-04-07 03:41:00,63.7,32.0,29.72,SSW,211,14.0,30.0,30,0.00,,,0.00,0,weatherlink.com 1.10,2013-04-07 08:41:00,
2013-04-07 04:11:00,61.5,31.0,29.70,SW,219,4.0,8.0,32,0.00,,,0.00,0,weatherlink.com 1.10,2013-04-07 09:11:00,
2013-04-07 04:26:00,60.5,32.0,29.70,SSW,198,6.0,11.0,34,0.00,,,0.00,0,weatherlink.com 1.10,2013-04-07 09:26:00,
2013-04-07 04:56:00,58.5,30.0,29.71,SW,223,7.0,11.0,34,0.00,,,0.00,0,weatherlink.com 1.10,2013-04-07 09:56:00,
2013-04-07 05:11:00,56.8,32.0,29.70,SW,215,2.0,13.0,39,0.00,,,0.00,0,weatherlink.com 1.10,2013-04-07 10:11:00,
2013-04-07 05:26:00,56.6,34.0,29.70,SW,224,10.0,15.0,43,0.00,,,0.00,0,weatherlink.com 1.10,2013-04-07 10:26:00,
2013-04-07 05:42:00,56.2,35.0,29.69,SSW,205,12.0,14.0,46,0.00,,,0.00,0,weatherlink.com 1.10,2013-04-07 10:42:00,
2013-04-07 05:56:00,55.6,37.0,29.69,SSW,213,2.0,10.0,49,0.00,,,0.00,0,weatherlink.com 1.10,2013-04-07 10:56:00,
2013-04-07 06:11:00,55.3,38.0,29.68,SSW,213,7.0,9.0,52,0.00,,,0.00,0,weatherlink.com 1.10,2013-04-07 11:11:00,
2013-04-07 06:27:00,55.3,38.0,29.68,SSW,203,0.0,4.0,53,0.00,,,0.00,0,weatherlink.com 1.10,2013-04-07 11:27:00,
2013-04-07 06:42:00,54.9,39.0,29.68,SSW,192,0.0,6.0,55,0.00,,,0.00,0,weatherlink.com 1.10,2013-04-07 11:42:00,
2013-04-07 06:56:00,55.2,40.0,29.68,South,183,5.0,5.0,56,0.00,,,0.00,0,weatherlink.com 1.10,2013-04-07 11:56:00,
2013-04-07 07:12:00,55.6,39.0,29.68,SSE,166,1.0,4.0,54,0.00,,,0.00,0,weatherlink.com 1.10,2013-04-07 12:12:00,
2013-04-07 07:27:00,55.3,39.0,29.68,South,184,0.0,7.0,55,0.00,,,0.00,5,weatherlink.com 1.10,2013-04-07 12:27:00,
2013-04-07 07:42:00,55.0,39.0,29.68,South,184,5.0,8.0,56,0.00,,,0.00,16,weatherlink.com 1.10,2013-04-07 12:42:00,
2013-04-07 07:57:00,55.6,39.0,29.69,South,185,4.0,7.0,55,0.00,,,0.00,30,weatherlink.com 1.10,2013-04-07 12:57:00,
2013-04-07 08:27:00,57.4,39.0,29.68,SSE,167,5.0,8.0,51,0.00,,,0.00,33,weatherlink.com 1.10,2013-04-07 13:27:00,
2013-04-07 08:42:00,57.7,39.0,29.68,South,173,7.0,9.0,50,0.00,,,0.00,74,weatherlink.com 1.10,2013-04-07 13:42:00,
2013-04-07 08:57:00,57.8,39.0,29.68,SSE,163,2.0,11.0,50,0.00,,,0.00,51,weatherlink.com 1.10,2013-04-07 13:57:00,
2013-04-07 09:12:00,58.5,39.0,29.67,SSE,167,12.0,12.0,49,0.00,,,0.00,132,weatherlink.com 1.10,2013-04-07 14:12:00,
2013-04-07 09:27:00,59.8,39.0,29.67,ESE,105,7.0,15.0,46,0.00,,,0.00,185,weatherlink.com 1.10,2013-04-07 14:27:00,
2013-04-07 09:57:00,60.2,40.0,29.66,SSE,161,5.0,14.0,47,0.00,,,0.00,192,weatherlink.com 1.10,2013-04-07 14:57:00,
2013-04-07 10:12:00,60.1,40.0,29.65,SSW,192,1.0,14.0,48,0.00,,,0.00,118,weatherlink.com 1.10,2013-04-07 15:12:00,
2013-04-07 10:27:00,61.2,41.0,29.66,South,169,1.0,13.0,47,0.00,,,0.00,190,weatherlink.com 1.10,2013-04-07 15:27:00,
2013-04-07 10:42:00,61.4,41.0,29.66,South,175,2.0,10.0,47,0.00,,,0.00,128,weatherlink.com 1.10,2013-04-07 15:42:00,
2013-04-07 10:57:00,62.2,42.0,29.67,SW,234,0.0,7.0,47,0.00,,,0.00,135,weatherlink.com 1.10,2013-04-07 15:57:00,
2013-04-07 11:12:00,62.3,42.0,29.67,WSW,237,0.0,6.0,47,0.00,,,0.00,128,weatherlink.com 1.10,2013-04-07 16:12:00,
2013-04-07 11:27:00,60.1,42.0,29.66,NE,40,0.0,6.0,51,0.00,,,0.00,121,weatherlink.com 1.10,2013-04-07 16:27:00,
2013-04-07 11:42:00,58.8,44.0,29.66,East,95,0.0,18.0,58,0.00,,,0.00,91,weatherlink.com 1.10,2013-04-07 16:42:00,
2013-04-07 11:57:00,56.5,47.0,29.66,NNE,13,0.0,1.0,71,0.00,,,0.00,172,weatherlink.com 1.10,2013-04-07 16:57:00,
2013-04-07 12:12:00,56.5,47.0,29.65,NNE,23,0.0,3.0,70,0.00,,,0.00,105,weatherlink.com 1.10,2013-04-07 17:12:00,
2013-04-07 12:27:00,57.6,48.0,29.64,North,350,0.0,4.0,70,0.00,,,0.00,132,weatherlink.com 1.10,2013-04-07 17:27:00,
2013-04-07 12:42:00,57.1,47.0,29.64,NNE,23,0.0,3.0,70,0.00,,,0.00,160,weatherlink.com 1.10,2013-04-07 17:42:00,
2013-04-07 13:12:00,56.8,49.0,29.61,NE,49,7.0,7.0,75,0.00,,,0.00,200,weatherlink.com 1.10,2013-04-07 18:12:00,
2013-04-07 13:27:00,59.4,51.0,29.61,NE,51,1.0,7.0,75,0.00,,,0.00,1062,weatherlink.com 1.10,2013-04-07 18:27:00,
2013-04-07 13:42:00,60.1,49.0,29.60,NE,55,1.0,7.0,66,0.00,,,0.00,425,weatherlink.com 1.10,2013-04-07 18:42:00,
2013-04-07 13:57:00,63.3,47.0,29.59,NNW,339,0.0,7.0,56,0.00,,,0.00,230,weatherlink.com 1.10,2013-04-07 18:57:00,
2013-04-07 14:27:00,66.8,47.0,29.57,NW,326,0.0,8.0,49,0.00,,,0.00,851,weatherlink.com 1.10,2013-04-07 19:27:00,
2013-04-07 14:58:00,71.0,49.0,29.55,NNE,30,4.0,7.0,45,0.00,,,0.00,816,weatherlink.com 1.10,2013-04-07 19:58:00,
2013-04-07 15:12:00,71.2,46.0,29.54,West,273,7.0,7.0,41,0.00,,,0.00,809,weatherlink.com 1.10,2013-04-07 20:12:00,
2013-04-07 15:27:00,71.3,44.0,29.54,NNE,33,0.0,10.0,38,0.00,,,0.00,782,weatherlink.com 1.10,2013-04-07 20:27:00,
2013-04-07 15:57:00,72.6,43.0,29.53,NW,320,12.0,13.0,34,0.00,,,0.00,782,weatherlink.com 1.10,2013-04-07 20:57:00,
2013-04-07 16:12:00,72.4,41.0,29.53,West,261,8.0,13.0,32,0.00,,,0.00,761,weatherlink.com 1.10,2013-04-07 21:12:00,
2013-04-07 16:28:00,71.4,39.0,29.52,West,262,7.0,18.0,31,0.00,,,0.00,679,weatherlink.com 1.10,2013-04-07 21:28:00,
2013-04-07 16:43:00,72.5,39.0,29.52,West,276,6.0,8.0,30,0.00,,,0.00,675,weatherlink.com 1.10,2013-04-07 21:43:00,
2013-04-07 16:58:00,72.5,38.0,29.52,West,277,11.0,15.0,29,0.00,,,0.00,673,weatherlink.com 1.10,2013-04-07 21:58:00,
2013-04-07 17:13:00,73.0,37.0,29.52,West,261,4.0,15.0,27,0.00,,,0.00,555,weatherlink.com 1.10,2013-04-07 22:13:00,
2013-04-07 17:28:00,71.5,35.0,29.52,West,267,3.0,17.0,26,0.00,,,0.00,504,weatherlink.com 1.10,2013-04-07 22:28:00,
2013-04-07 17:43:00,72.3,35.0,29.52,West,274,4.0,14.0,25,0.00,,,0.00,455,weatherlink.com 1.10,2013-04-07 22:43:00,
2013-04-07 17:58:00,72.4,35.0,29.52,West,273,4.0,13.0,25,0.00,,,0.00,415,weatherlink.com 1.10,2013-04-07 22:58:00,
2013-04-07 18:13:00,72.8,35.0,29.52,WNW,290,1.0,12.0,25,0.00,,,0.00,315,weatherlink.com 1.10,2013-04-07 23:13:00,
2013-04-07 18:28:00,70.6,32.0,29.53,NW,317,2.0,13.0,24,0.00,,,0.00,97,weatherlink.com 1.10,2013-04-07 23:28:00,
2013-04-07 18:43:00,69.6,30.0,29.53,NW,316,2.0,14.0,23,0.00,,,0.00,127,weatherlink.com 1.10,2013-04-07 23:43:00,
2013-04-07 18:58:00,67.5,46.0,29.52,NE,51,0.0,8.0,46,0.00,,,0.00,278,weatherlink.com 1.10,2013-04-07 23:58:00,
2013-04-07 19:13:00,67.1,46.0,29.52,ENE,59,8.0,10.0,47,0.00,,,0.00,127,weatherlink.com 1.10,2013-04-08 00:13:00,
2013-04-07 19:28:00,64.9,47.0,29.52,ENE,73,5.0,11.0,52,0.00,,,0.00,51,weatherlink.com 1.10,2013-04-08 00:28:00,
2013-04-07 19:43:00,62.5,46.0,29.53,East,86,3.0,8.0,56,0.00,,,0.00,30,weatherlink.com 1.10,2013-04-08 00:43:00,
2013-04-07 19:58:00,60.9,47.0,29.52,East,98,6.0,7.0,60,0.00,,,0.00,16,weatherlink.com 1.10,2013-04-08 00:58:00,
2013-04-07 20:13:00,59.3,46.0,29.52,East,86,1.0,6.0,62,0.00,,,0.00,5,weatherlink.com 1.10,2013-04-08 01:13:00,
2013-04-07 20:28:00,57.5,46.0,29.53,ESE,103,0.0,3.0,65,0.00,,,0.00,0,weatherlink.com 1.10,2013-04-08 01:28:00,
2013-04-07 20:43:00,55.7,45.0,29.53,East,96,0.0,1.0,68,0.00,,,0.00,0,weatherlink.com 1.10,2013-04-08 01:43:00,
2013-04-07 20:58:00,55.1,44.0,29.54,East,82,2.0,6.0,67,0.00,,,0.00,0,weatherlink.com 1.10,2013-04-08 01:58:00,
2013-04-07 21:13:00,53.7,44.0,29.54,ESE,116,0.0,2.0,71,0.00,,,0.00,0,weatherlink.com 1.10,2013-04-08 02:13:00,
2013-04-07 21:28:00,53.0,44.0,29.54,East,94,0.0,6.0,72,0.00,,,0.00,0,weatherlink.com 1.10,2013-04-08 02:28:00,
2013-04-07 21:58:00,53.5,46.0,29.55,SSE,156,0.0,5.0,76,0.00,,,0.00,0,weatherlink.com 1.10,2013-04-08 02:58:00,
2013-04-07 22:13:00,53.2,46.0,29.56,SSE,167,1.0,6.0,77,0.00,,,0.00,0,weatherlink.com 1.10,2013-04-08 03:13:00,
2013-04-07 22:28:00,52.0,46.0,29.56,South,174,3.0,5.0,79,0.00,,,0.00,0,weatherlink.com 1.10,2013-04-08 03:28:00,
2013-04-07 22:58:00,52.8,46.0,29.57,SE,134,0.0,3.0,79,0.00,,,0.00,0,weatherlink.com 1.10,2013-04-08 03:58:00,
2013-04-07 23:13:00,52.2,47.0,29.58,ESE,117,4.0,6.0,81,0.00,,,0.00,0,weatherlink.com 1.10,2013-04-08 04:13:00,
2013-04-07 23:28:00,50.3,45.0,29.57,SE,128,0.0,5.0,82,0.00,,,0.00,0,weatherlink.com 1.10,2013-04-08 04:28:00,
2013-04-07 23:58:00,49.3,45.0,29.57,SE,134,3.0,7.0,86,0.00,,,0.00,0,weatherlink.com 1.10,2013-04-08 04:58:00,